Impacts TAF Board INFO
FOR SITUATIONAL AWARENESS. NOT TO BE USED FOR FLIGHT PLANNING PURPOSES.
IDs:

KSLC - Salt Lake City Intl, UT, US

Issued at 0400 UTC 17 Aug 2018
Updated at 0524 UTC 17 Aug 2018
Potential Impact None Slight Moderate High
Time0454Z 17/06Z 17/07Z 17/08Z 17/09Z 17/10Z 17/11Z 17/12Z 17/13Z 17/14Z 17/15Z 17/16Z 17/17Z 17/18Z>>
Type OBS PRVL PRVL PRVL PRVL PRVL PRVL PRVL PRVL PRVL PRVL PRVL PRVL PRVL
VIS 10 >6 >6 >6 >6 >6 >6 >6 >6 >6 >6 >6 >6 >6
CIG 210 150 150 150 150 150 150 150 150 150 150 150 150 150
Cover BKN BKN BKN BKN BKN BKN BKN BKN BKN BKN BKN BKN BKN BKN
FltCat VFR VFR VFR VFR VFR VFR VFR VFR VFR VFR VFR VFR VFR VFR
WX -- -- -- -- -- -- -- -- -- -- -- -- -- --
WDir 180 150 150 150 150 150 150 150 150 150 150 150 150 150
WSpd 5 6 6 6 6 6 6 6 6 6 6 6 6 6
WGst -- -- -- -- -- -- -- -- -- -- -- -- -- --

Raw TAF
KSLC 170400Z 1704/1806 15006KT P6SM SCT100 BKN150
  FM172200 33010KT P6SM SCT090


Raw METAR
KSLC 170454Z 18005KT 10SM FEW095 SCT150 BKN210 27/08 A3014 RMK AO2 SLP145 T02670078
KSLC 170354Z 18007KT 10SM FEW090 BKN150 BKN230 27/10 A3013 RMK AO2 SLP146 T02720100
KSLC 170254Z 35006KT 10SM FEW095 BKN160 BKN240 29/08 A3011 RMK AO2 SLP137 T02890083 53007

METAR Board
Radar Display
Forecast Discussion

FOR SITUATIONAL AWARENESS. NOT TO BE USED FOR FLIGHT PLANNING PURPOSES.